Cameron Village, North Carolina
Current Conditions -  °F | °C
As of 8:33 PM on Monday 24 Nov 2014 (Local Time) from KRDU Reporting Station
Broken Clouds Broken Clouds  
Wind Chill: 66°   Ceiling: 13000
Heat Index: 66°   Visibility: 10mi
Dew Point: 61°   Wind: 16mph
Humidity: 83%   Direction: 230°SW
Pressure: 29.89"   Gusts: NA
Location:  35.7907°N, 78.6542°W
Report Text: KRDU 250133Z 23014KT 10SM SCT017 BKN130 BKN170 19/16 A2989 RMK AO2
Loading
Personal Weather Stations






























Interactive Weather Map New forecast layout! Learn more

10-Day Weather Forecast

Advertisements
Track Severe Weather on mobile